Aérodrome :
LOGIN :

S'inscrire | Disclaimer

   EN    FR    IT 

 










Légende :    VFR   VFR Marginal   IFR   IFR Intensif   IFR Très Intensif
Visi : 
Plafond : 
>= 8 km
>= 3000ft
5 à 8 km
1000 à 3000 ft
1500m à 5 km
500 à 1000 ft
800 à 1500m
200 à 500 ft
< 800m
< 200 ft
Symboles :   Orages  Brouillard  Fortes neiges  Fortes précipitations  Vent > 20 kt
SIGMETs :   Divers  Orages  Givrage  Turbulence  Onde Orograph.  Cendres Volcan.






- Altitude de l'aérodrome : 1411 ft
- Code IATA : SZG


LOWS - Salzburg

DERNIER METAR :
  • 182020Z 15003KT 9999 FEW045 SCT080 12/10 Q1015 NOSIG

METARs EXPIRÉS :
  • 181950Z VRB01KT 9999 -SHRA FEW060 SCT070 BKN090 13/11 Q1015 NOSIG
  • 181920Z 17003KT 9999 FEW060 SCT070 BKN080 13/10 Q1015 NOSIG
  • 181850Z VRB02KT 9999 FEW070 BKN080 14/10 Q1014 NOSIG
  • 181820Z 22002KT 9999 FEW070 SCT080 BKN100 14/11 Q1014 NOSIG
  • 181750Z 16004KT 140V210 9999 FEW070 BKN090 14/10 Q1014 NOSIG

TAF TAF LOWS
Valide du 18 à 18h jusqu'au 19 à 18h UTC


181715Z 1818/1918 15004KT 9999 FEW080 SCT300 TX20/1913Z TN10/1903Z
TEMPO 1902/1912 18010KT
BECMG 1910/1912 35005KT CAVOK



MET'MAP, la Météo Aéronautique d'un coup d'oeil ! - Copyright ORBIFLY Décembre 2007 - Disclaimer

ORBIFLY MET'MAP TEAM :

Programmation & Développement : Alexandra Zaïnal
Conception & Développement : Baudouin d'Aumeries
Co-Programmation & Développement : Marc-Olivier Méhu
Soutien technique & logistique : Manuel Goepfert

Contact : metmap@orbifly.com




SOURCES & CREDITS :

   NOAA